Main page
METAR-TAF:

METAR-TAF

Airports :

Mataveri International Airport

Easter Island, Chile

latitude: 27-09S, longitude: 109-25W, elevation: 51 m

Current weather observation

The report was made 46 minutes ago, at 17:00 UTC
Wind 6 kt from the Northeast, varying between North and Southeast
Temperature 23°C
Humidity 69%
Pressure 1023 hPa
Visibility 10 km or more
Broken clouds at a height of 2500 ft

METAR: SCIP 251700Z 05006KT 350V140 9999 BKN025 23/17 Q1023 NOSIG

Time: 12:46 (17:46 UTC)

Forecast

The report was made 1 hour and 29 minutes ago, at 16:17 UTC
Forecast valid from 25 at 18 UTC to 26 at 18 UTC
Wind 6 kt from the North/Northeast
Visibility 10 km or more
Scattered clouds at a height of 2000 ft
Temporary
from 25 at 22 UTC to 26 at 08 UTC
Wind 10 kt from the North
Visibility: 6000 m
Scattered clouds at a height of 1400 ft
Broken clouds at a height of 4000 ft
light rain showers

TAF: SCIP 251617Z 2518/2618 02006KT 9999 SCT020 TX23/2520Z TN15/2610Z TEMPO 2522/2608 35010KT 6000 -SHRA SCT014 BKN040

Weather observations and forecasts of more than 4000 airports (METAR and TAF reports).

The available stations are represented by yellow and red dots on the map.

Hover mouse over dot to see the name of the station.

Then click to see weather observations and forecasts.

To change the map : click on the green buttons with a black cross to zoom in, on the green button with a dash to zoom out, or on the green arrows for adjacent maps.


METAR-TAF: